createdAt,value
2023-05-22T00:04:52.935Z,100925.09
2023-05-22T00:15:33.717Z,100918.50
2023-05-22T00:26:16.414Z,100906.22
2023-05-22T00:36:57.052Z,100907.66
2023-05-22T00:47:37.782Z,100900.41
2023-05-22T00:58:19.463Z,100900.66
2023-05-22T01:08:59.980Z,100902.69
2023-05-22T01:20:01.613Z,100895.81
2023-05-22T01:31:08.181Z,100896.19
2023-05-22T01:41:49.051Z,100896.63
2023-05-22T01:52:45.257Z,100877.22
2023-05-22T02:03:31.470Z,100861.72
2023-05-22T02:14:12.639Z,100846.59
2023-05-22T02:24:53.435Z,100850.72
2023-05-22T02:35:33.940Z,100851.91
2023-05-22T02:46:14.692Z,100839.09
2023-05-22T02:56:55.886Z,100849.06
2023-05-22T03:07:37.146Z,100850.16
2023-05-22T03:18:17.842Z,100851.34
2023-05-22T03:28:58.468Z,100852.44
2023-05-22T03:39:39.800Z,100852.09
2023-05-22T03:50:20.578Z,100850.56
2023-05-22T04:01:01.151Z,100853.38
2023-05-22T04:11:42.421Z,100847.53
2023-05-22T04:22:23.828Z,100850.31
2023-05-22T04:33:05.559Z,100849.53
2023-05-22T04:43:48.438Z,100866.91
2023-05-22T04:54:29.182Z,100860.63
2023-05-22T05:05:09.881Z,100861.41
2023-05-22T05:15:50.609Z,100859.47
2023-05-22T05:26:31.414Z,100857.19
2023-05-22T05:37:11.935Z,100861.69
2023-05-22T05:47:53.168Z,100869.88
2023-05-22T05:58:33.934Z,100883.13
2023-05-22T06:09:14.156Z,100875.09
2023-05-22T06:19:54.899Z,100876.81
2023-05-22T06:30:40.166Z,100884.53
2023-05-22T06:41:24.088Z,100887.22
2023-05-22T06:52:05.504Z,100898.50
2023-05-22T07:02:46.185Z,100900.03
2023-05-22T07:13:26.437Z,100910.16
2023-05-22T07:24:10.229Z,100927.94
2023-05-22T07:34:51.790Z,100933.53
2023-05-22T07:45:32.568Z,100928.66
2023-05-22T07:56:13.598Z,100932.28
2023-05-22T08:06:54.308Z,100950.50
2023-05-22T08:17:35.179Z,100946.50
2023-05-22T08:28:16.066Z,100961.25
2023-05-22T08:38:56.583Z,100960.28
2023-05-22T08:49:39.881Z,100964.97
2023-05-22T09:00:21.763Z,100969.53
2023-05-22T09:11:02.409Z,100967.09
2023-05-22T09:21:44.623Z,100974.91
2023-05-22T09:32:29.014Z,100989.94
2023-05-22T09:43:11.093Z,100985.44
2023-05-22T09:53:53.408Z,100985.19
2023-05-22T10:04:34.662Z,100986.09
2023-05-22T10:15:17.408Z,100983.03
2023-05-22T10:25:58.255Z,100971.56
2023-05-22T10:36:56.121Z,100966.94
2023-05-22T10:47:42.314Z,100966.31
2023-05-22T10:58:28.852Z,100962.25
2023-05-22T11:09:31.609Z,100957.53
2023-05-22T11:20:15.776Z,100953.88
2023-05-22T11:30:57.487Z,100944.38
2023-05-22T11:41:38.178Z,100939.97
2023-05-22T11:52:18.603Z,100926.06
2023-05-22T12:02:59.281Z,100926.66
2023-05-22T12:13:40.394Z,100910.59
2023-05-22T12:24:23.718Z,100908.84
2023-05-22T12:35:04.038Z,100896.81
2023-05-22T12:45:44.559Z,100900.41
2023-05-22T12:56:25.737Z,100893.59
2023-05-22T13:07:06.179Z,100888.09
2023-05-22T13:17:46.589Z,100892.97
2023-05-22T13:28:27.059Z,100895.31
2023-05-22T13:39:07.635Z,100871.72
2023-05-22T13:49:48.165Z,100873.13
2023-05-22T14:00:28.866Z,100865.34
2023-05-22T14:11:09.481Z,100870.44
2023-05-22T14:21:50.900Z,100875.06
2023-05-22T14:32:31.777Z,100870.72
2023-05-22T14:43:12.159Z,100873.13
2023-05-22T14:53:52.840Z,100868.16
2023-05-22T15:04:33.150Z,100859.53
2023-05-22T15:14:53.663Z,100848.94
2023-05-22T15:25:15.284Z,100833.19
2023-05-22T15:35:36.175Z,100829.88
2023-05-22T15:45:56.552Z,100827.78
2023-05-22T15:56:16.957Z,100835.47
2023-05-22T16:06:57.431Z,100841.13
2023-05-22T16:17:38.522Z,100881.56
2023-05-22T16:28:19.641Z,100904.38
2023-05-22T16:39:01.139Z,100890.19
2023-05-22T16:49:41.922Z,100916.28
2023-05-22T17:00:22.869Z,100911.97
2023-05-22T17:11:03.568Z,100917.59
2023-05-22T17:21:44.622Z,100922.59
2023-05-22T17:32:25.761Z,100939.44
2023-05-22T17:43:06.256Z,100949.94
2023-05-22T17:53:46.549Z,100957.97
2023-05-22T18:04:27.219Z,100963.81
2023-05-22T18:15:10.663Z,100971.13
2023-05-22T18:25:51.871Z,100981.78
2023-05-22T18:36:12.530Z,100996.13
2023-05-22T18:46:33.073Z,100999.38
2023-05-22T18:56:54.529Z,101012.34
2023-05-22T19:07:14.865Z,101033.81
2023-05-22T19:17:55.951Z,101046.63
2023-05-22T19:28:36.611Z,101058.06
2023-05-22T19:38:57.030Z,101080.94
2023-05-22T19:49:37.419Z,101077.88
2023-05-22T20:00:18.348Z,101098.13
2023-05-22T20:10:58.939Z,101107.22
2023-05-22T20:21:39.157Z,101128.44
2023-05-22T20:32:19.503Z,101135.72
2023-05-22T20:43:02.660Z,101143.44
2023-05-22T20:53:43.073Z,101160.75
2023-05-22T21:04:23.996Z,101162.13
2023-05-22T21:15:04.665Z,101175.94
2023-05-22T21:25:45.029Z,101177.69
2023-05-22T21:36:26.207Z,101175.56
2023-05-22T21:47:06.489Z,101184.13
2023-05-22T21:57:47.204Z,101197.44
2023-05-22T22:08:28.483Z,101197.13
2023-05-22T22:19:09.263Z,101209.59
2023-05-22T22:29:49.802Z,101222.22
2023-05-22T22:40:30.071Z,101221.69
2023-05-22T22:51:11.494Z,101220.69
2023-05-22T23:01:52.209Z,101229.44
2023-05-22T23:12:35.232Z,101228.22
2023-05-22T23:23:15.761Z,101240.28
2023-05-22T23:33:57.280Z,101237.16
2023-05-22T23:44:38.208Z,101230.31
2023-05-22T23:55:19.035Z,101230.38
